KBIF/BIF METAR and TAF weather

Enter ICAO airport designator
Station Type Date Time Source
KBIF METAR 2020/01/20 12:58 UTC NOAA

KBIF 201258Z AUTO 07004KT 10SM CLR 04/M06 A3041 RMK AO2 SLP278 T00441057 $


Station Type Date Time Source
KBIF Decoded METAR 2020/01/20 12:58 UTC NOAA

Biggs Army Air Field / Ft. Bliss, TX, United States (KBIF) 31-51N 106-23W
Jan 20, 2020 - 07:58 AM EST / 2020.01.20 1258 UTC
Wind: from the ENE (070 degrees) at 5 MPH (4 KT):0
Visibility: 10 mile(s):0
Sky conditions: clear
Temperature: 39.9 F (4.4 C)
Dew Point: 21.7 F (-5.7 C)
Relative Humidity: 47%
Pressure (altimeter): 30.41 in. Hg (1029 hPa)
ob: KBIF 201258Z AUTO 07004KT 10SM CLR 04/M06 A3041 RMK AO2 SLP278 T00441057
cycle: 13

Station Type Date Time Source
KBIF TAF 2020/01/20 07:34 UTC NOAA

TAF
AMD KBIF 200730Z 2007/2112 34009KT 9999 SKC QNH3025INS
BECMG 2017/2018 VRB06KT 9999 SCT030 BKN110 QNH3029INS TX17/2022Z TN03/2011Z LAST NO
AMDS AFT 2007 NEXT 2115

Example: see airport list